sensor_id;sensor_type;location;lat;lon;timestamp;P1;durP1;ratioP1;P2;durP2;ratioP2
20941;SDS011;10630;53.734;10.282;2022-07-05T00:12:01;2.42;;;1.27;;
20941;SDS011;10630;53.734;10.282;2022-07-05T00:14:46;3.03;;;1.58;;
20941;SDS011;10630;53.734;10.282;2022-07-05T00:17:17;4.78;;;1.67;;
20941;SDS011;10630;53.734;10.282;2022-07-05T00:19:48;6.22;;;2.13;;
20941;SDS011;10630;53.734;10.282;2022-07-05T00:22:21;4.28;;;2.08;;
20941;SDS011;10630;53.734;10.282;2022-07-05T00:24:58;2.83;;;1.60;;
20941;SDS011;10630;53.734;10.282;2022-07-05T00:27:33;4.80;;;1.27;;
20941;SDS011;10630;53.734;10.282;2022-07-05T00:30:08;5.40;;;1.67;;
20941;SDS011;10630;53.734;10.282;2022-07-05T00:32:40;6.97;;;1.77;;
20941;SDS011;10630;53.734;10.282;2022-07-05T00:35:12;3.03;;;1.40;;
20941;SDS011;10630;53.734;10.282;2022-07-05T00:37:43;3.17;;;1.40;;
20941;SDS011;10630;53.734;10.282;2022-07-05T00:40:12;2.90;;;1.48;;
20941;SDS011;10630;53.734;10.282;2022-07-05T00:42:47;3.63;;;1.83;;
20941;SDS011;10630;53.734;10.282;2022-07-05T00:45:15;3.20;;;1.55;;
20941;SDS011;10630;53.734;10.282;2022-07-05T00:48:32;4.30;;;1.42;;
20941;SDS011;10630;53.734;10.282;2022-07-05T00:51:04;5.68;;;1.85;;
20941;SDS011;10630;53.734;10.282;2022-07-05T00:53:35;2.85;;;1.63;;
20941;SDS011;10630;53.734;10.282;2022-07-05T00:56:12;2.58;;;1.70;;
20941;SDS011;10630;53.734;10.282;2022-07-05T00:58:41;2.35;;;1.25;;
20941;SDS011;10630;53.734;10.282;2022-07-05T01:01:14;4.93;;;1.73;;
20941;SDS011;10630;53.734;10.282;2022-07-05T01:03:59;3.88;;;1.50;;
20941;SDS011;10630;53.734;10.282;2022-07-05T01:06:32;5.15;;;1.80;;
20941;SDS011;10630;53.734;10.282;2022-07-05T01:09:06;3.97;;;1.70;;
20941;SDS011;10630;53.734;10.282;2022-07-05T01:11:44;2.80;;;2.05;;
20941;SDS011;10630;53.734;10.282;2022-07-05T01:14:20;3.83;;;1.75;;
20941;SDS011;10630;53.734;10.282;2022-07-05T01:16:50;8.88;;;2.15;;
20941;SDS011;10630;53.734;10.282;2022-07-05T01:19:43;5.07;;;1.80;;
20941;SDS011;10630;53.734;10.282;2022-07-05T01:22:18;3.42;;;1.85;;
20941;SDS011;10630;53.734;10.282;2022-07-05T01:24:49;3.75;;;1.88;;
20941;SDS011;10630;53.734;10.282;2022-07-05T01:27:18;4.72;;;1.73;;
20941;SDS011;10630;53.734;10.282;2022-07-05T01:29:47;6.78;;;1.80;;
20941;SDS011;10630;53.734;10.282;2022-07-05T01:32:19;4.97;;;1.95;;
20941;SDS011;10630;53.734;10.282;2022-07-05T01:34:47;4.80;;;1.70;;
20941;SDS011;10630;53.734;10.282;2022-07-05T01:37:18;3.65;;;1.77;;
20941;SDS011;10630;53.734;10.282;2022-07-05T01:39:51;4.85;;;2.03;;
20941;SDS011;10630;53.734;10.282;2022-07-05T01:42:30;4.97;;;1.80;;
20941;SDS011;10630;53.734;10.282;2022-07-05T01:45:01;2.85;;;1.90;;
20941;SDS011;10630;53.734;10.282;2022-07-05T01:48:09;3.05;;;2.47;;
20941;SDS011;10630;53.734;10.282;2022-07-05T01:53:23;4.10;;;1.90;;
20941;SDS011;10630;53.734;10.282;2022-07-05T01:56:19;2.92;;;1.73;;
20941;SDS011;10630;53.734;10.282;2022-07-05T01:59:09;5.05;;;2.05;;
20941;SDS011;10630;53.734;10.282;2022-07-05T02:01:40;2.42;;;1.95;;
20941;SDS011;10630;53.734;10.282;2022-07-05T02:04:09;5.38;;;1.85;;
20941;SDS011;10630;53.734;10.282;2022-07-05T02:06:39;3.50;;;2.13;;
20941;SDS011;10630;53.734;10.282;2022-07-05T02:09:33;6.07;;;2.20;;
20941;SDS011;10630;53.734;10.282;2022-07-05T02:12:01;5.07;;;1.85;;
20941;SDS011;10630;53.734;10.282;2022-07-05T02:14:32;5.47;;;1.75;;
20941;SDS011;10630;53.734;10.282;2022-07-05T02:17:05;3.00;;;1.75;;
20941;SDS011;10630;53.734;10.282;2022-07-05T02:19:37;4.25;;;1.88;;
20941;SDS011;10630;53.734;10.282;2022-07-05T02:22:12;3.25;;;2.08;;
20941;SDS011;10630;53.734;10.282;2022-07-05T02:24:39;3.60;;;1.98;;
20941;SDS011;10630;53.734;10.282;2022-07-05T02:27:07;3.38;;;1.83;;
20941;SDS011;10630;53.734;10.282;2022-07-05T02:29:37;2.85;;;1.92;;
20941;SDS011;10630;53.734;10.282;2022-07-05T02:32:04;3.42;;;2.30;;
20941;SDS011;10630;53.734;10.282;2022-07-05T02:34:35;2.55;;;2.10;;
20941;SDS011;10630;53.734;10.282;2022-07-05T02:37:09;4.53;;;2.13;;
20941;SDS011;10630;53.734;10.282;2022-07-05T02:39:41;4.70;;;2.28;;
20941;SDS011;10630;53.734;10.282;2022-07-05T02:42:17;4.10;;;2.20;;
20941;SDS011;10630;53.734;10.282;2022-07-05T02:44:44;4.65;;;1.90;;
20941;SDS011;10630;53.734;10.282;2022-07-05T02:49:47;3.25;;;2.15;;
20941;SDS011;10630;53.734;10.282;2022-07-05T02:52:41;4.37;;;2.00;;
20941;SDS011;10630;53.734;10.282;2022-07-05T02:55:17;5.25;;;2.40;;
20941;SDS011;10630;53.734;10.282;2022-07-05T02:57:45;3.78;;;1.95;;
20941;SDS011;10630;53.734;10.282;2022-07-05T03:00:13;4.90;;;2.47;;
20941;SDS011;10630;53.734;10.282;2022-07-05T03:02:48;5.00;;;2.20;;
20941;SDS011;10630;53.734;10.282;2022-07-05T03:05:18;4.05;;;2.50;;
20941;SDS011;10630;53.734;10.282;2022-07-05T03:07:45;4.95;;;2.95;;
20941;SDS011;10630;53.734;10.282;2022-07-05T03:10:19;6.45;;;2.33;;
20941;SDS011;10630;53.734;10.282;2022-07-05T03:12:46;3.40;;;2.40;;
20941;SDS011;10630;53.734;10.282;2022-07-05T03:15:17;4.38;;;2.55;;
20941;SDS011;10630;53.734;10.282;2022-07-05T03:17:46;6.35;;;2.88;;
20941;SDS011;10630;53.734;10.282;2022-07-05T03:20:18;5.60;;;3.00;;
20941;SDS011;10630;53.734;10.282;2022-07-05T03:22:48;4.43;;;2.47;;
20941;SDS011;10630;53.734;10.282;2022-07-05T03:25:35;5.60;;;3.33;;
20941;SDS011;10630;53.734;10.282;2022-07-05T03:28:06;4.72;;;2.70;;
20941;SDS011;10630;53.734;10.282;2022-07-05T03:30:36;4.40;;;2.70;;
20941;SDS011;10630;53.734;10.282;2022-07-05T03:33:06;4.80;;;2.90;;
20941;SDS011;10630;53.734;10.282;2022-07-05T03:35:37;4.60;;;2.78;;
20941;SDS011;10630;53.734;10.282;2022-07-05T03:38:04;4.50;;;2.20;;
20941;SDS011;10630;53.734;10.282;2022-07-05T03:43:10;6.43;;;2.83;;
20941;SDS011;10630;53.734;10.282;2022-07-05T03:45:38;4.38;;;3.00;;
20941;SDS011;10630;53.734;10.282;2022-07-05T03:48:09;5.05;;;2.50;;
20941;SDS011;10630;53.734;10.282;2022-07-05T03:51:00;4.15;;;2.30;;
20941;SDS011;10630;53.734;10.282;2022-07-05T03:53:30;6.25;;;2.85;;
20941;SDS011;10630;53.734;10.282;2022-07-05T03:55:57;6.18;;;2.47;;
20941;SDS011;10630;53.734;10.282;2022-07-05T03:58:33;5.15;;;2.92;;
20941;SDS011;10630;53.734;10.282;2022-07-05T04:01:15;6.63;;;3.03;;
20941;SDS011;10630;53.734;10.282;2022-07-05T04:03:45;6.78;;;2.88;;
20941;SDS011;10630;53.734;10.282;2022-07-05T04:08:53;7.90;;;2.80;;
20941;SDS011;10630;53.734;10.282;2022-07-05T04:11:23;5.32;;;2.72;;
20941;SDS011;10630;53.734;10.282;2022-07-05T04:13:50;7.82;;;3.47;;
20941;SDS011;10630;53.734;10.282;2022-07-05T04:16:21;6.43;;;3.22;;
20941;SDS011;10630;53.734;10.282;2022-07-05T04:18:52;4.03;;;2.55;;
20941;SDS011;10630;53.734;10.282;2022-07-05T04:21:22;8.88;;;3.38;;
20941;SDS011;10630;53.734;10.282;2022-07-05T04:23:55;4.65;;;3.28;;
20941;SDS011;10630;53.734;10.282;2022-07-05T04:29:00;5.32;;;2.80;;
20941;SDS011;10630;53.734;10.282;2022-07-05T04:31:34;5.55;;;2.67;;
20941;SDS011;10630;53.734;10.282;2022-07-05T04:34:08;7.10;;;2.85;;
20941;SDS011;10630;53.734;10.282;2022-07-05T05:02:44;4.18;;;2.92;;
20941;SDS011;10630;53.734;10.282;2022-07-05T05:05:15;7.47;;;2.75;;
20941;SDS011;10630;53.734;10.282;2022-07-05T05:07:50;5.15;;;3.15;;
20941;SDS011;10630;53.734;10.282;2022-07-05T05:10:44;3.88;;;2.75;;
20941;SDS011;10630;53.734;10.282;2022-07-05T05:13:18;4.82;;;2.50;;
20941;SDS011;10630;53.734;10.282;2022-07-05T05:18:38;4.38;;;2.78;;
20941;SDS011;10630;53.734;10.282;2022-07-05T05:21:12;3.58;;;2.53;;
20941;SDS011;10630;53.734;10.282;2022-07-05T05:24:00;6.18;;;2.60;;
20941;SDS011;10630;53.734;10.282;2022-07-05T05:26:38;4.03;;;2.30;;
20941;SDS011;10630;53.734;10.282;2022-07-05T05:32:38;3.13;;;2.17;;
20941;SDS011;10630;53.734;10.282;2022-07-05T05:35:26;6.13;;;2.20;;
20941;SDS011;10630;53.734;10.282;2022-07-05T05:58:17;3.75;;;1.60;;
20941;SDS011;10630;53.734;10.282;2022-07-05T06:00:49;2.80;;;1.63;;
20941;SDS011;10630;53.734;10.282;2022-07-05T06:36:27;2.65;;;1.27;;
20941;SDS011;10630;53.734;10.282;2022-07-05T07:31:09;1.55;;;1.05;;
20941;SDS011;10630;53.734;10.282;2022-07-05T07:34:15;5.43;;;1.30;;
20941;SDS011;10630;53.734;10.282;2022-07-05T07:40:26;3.42;;;1.10;;
20941;SDS011;10630;53.734;10.282;2022-07-05T07:46:04;1.95;;;0.90;;
20941;SDS011;10630;53.734;10.282;2022-07-05T07:51:43;5.50;;;1.20;;
20941;SDS011;10630;53.734;10.282;2022-07-05T08:00:32;2.08;;;1.13;;
20941;SDS011;10630;53.734;10.282;2022-07-05T08:03:12;4.68;;;1.20;;
20941;SDS011;10630;53.734;10.282;2022-07-05T08:05:38;1.27;;;0.85;;
20941;SDS011;10630;53.734;10.282;2022-07-05T08:08:06;3.33;;;0.90;;
20941;SDS011;10630;53.734;10.282;2022-07-05T08:10:33;3.58;;;0.85;;
20941;SDS011;10630;53.734;10.282;2022-07-05T08:13:00;4.13;;;0.93;;
20941;SDS011;10630;53.734;10.282;2022-07-05T08:15:29;1.80;;;0.80;;
20941;SDS011;10630;53.734;10.282;2022-07-05T08:18:11;3.28;;;1.10;;
20941;SDS011;10630;53.734;10.282;2022-07-05T08:21:00;3.63;;;0.85;;
20941;SDS011;10630;53.734;10.282;2022-07-05T08:37:31;2.03;;;1.00;;
20941;SDS011;10630;53.734;10.282;2022-07-05T08:43:07;2.28;;;0.60;;
20941;SDS011;10630;53.734;10.282;2022-07-05T08:45:55;2.45;;;1.02;;
20941;SDS011;10630;53.734;10.282;2022-07-05T08:48:39;2.67;;;0.70;;
20941;SDS011;10630;53.734;10.282;2022-07-05T08:51:22;1.73;;;0.73;;
20941;SDS011;10630;53.734;10.282;2022-07-05T08:53:58;2.40;;;0.88;;
20941;SDS011;10630;53.734;10.282;2022-07-05T08:56:27;4.05;;;0.60;;
20941;SDS011;10630;53.734;10.282;2022-07-05T09:05:08;3.13;;;0.80;;
20941;SDS011;10630;53.734;10.282;2022-07-05T09:07:39;1.48;;;0.77;;
20941;SDS011;10630;53.734;10.282;2022-07-05T09:13:48;2.08;;;0.70;;
20941;SDS011;10630;53.734;10.282;2022-07-05T09:32:34;1.17;;;0.45;;
20941;SDS011;10630;53.734;10.282;2022-07-05T09:35:42;2.30;;;0.50;;
20941;SDS011;10630;53.734;10.282;2022-07-05T09:38:53;0.80;;;0.40;;
20941;SDS011;10630;53.734;10.282;2022-07-05T10:26:02;1.55;;;0.50;;
20941;SDS011;10630;53.734;10.282;2022-07-05T10:36:43;2.67;;;0.50;;
20941;SDS011;10630;53.734;10.282;2022-07-05T10:39:16;1.48;;;0.60;;
20941;SDS011;10630;53.734;10.282;2022-07-05T11:41:21;5.25;;;1.05;;
20941;SDS011;10630;53.734;10.282;2022-07-05T11:53:08;1.98;;;0.40;;
20941;SDS011;10630;53.734;10.282;2022-07-05T11:58:44;0.90;;;0.30;;
20941;SDS011;10630;53.734;10.282;2022-07-05T13:05:39;3.22;;;0.60;;
20941;SDS011;10630;53.734;10.282;2022-07-05T13:08:06;1.80;;;0.35;;
20941;SDS011;10630;53.734;10.282;2022-07-05T13:10:32;2.33;;;0.60;;
20941;SDS011;10630;53.734;10.282;2022-07-05T13:13:06;1.95;;;0.95;;
20941;SDS011;10630;53.734;10.282;2022-07-05T13:15:35;2.05;;;0.57;;
20941;SDS011;10630;53.734;10.282;2022-07-05T13:18:06;1.20;;;0.43;;
20941;SDS011;10630;53.734;10.282;2022-07-05T13:20:34;1.17;;;0.50;;
20941;SDS011;10630;53.734;10.282;2022-07-05T13:25:31;4.72;;;0.60;;
20941;SDS011;10630;53.734;10.282;2022-07-05T13:28:04;1.98;;;0.75;;
20941;SDS011;10630;53.734;10.282;2022-07-05T13:30:38;4.03;;;0.73;;
20941;SDS011;10630;53.734;10.282;2022-07-05T13:33:07;2.08;;;0.63;;
20941;SDS011;10630;53.734;10.282;2022-07-05T13:35:51;1.60;;;0.50;;
20941;SDS011;10630;53.734;10.282;2022-07-05T13:38:18;1.23;;;0.40;;
20941;SDS011;10630;53.734;10.282;2022-07-05T13:54:06;2.25;;;0.57;;
20941;SDS011;10630;53.734;10.282;2022-07-05T13:56:35;1.92;;;0.60;;
20941;SDS011;10630;53.734;10.282;2022-07-05T13:59:03;1.48;;;0.60;;
20941;SDS011;10630;53.734;10.282;2022-07-05T14:01:32;2.65;;;0.55;;
20941;SDS011;10630;53.734;10.282;2022-07-05T14:04:05;3.65;;;0.60;;
20941;SDS011;10630;53.734;10.282;2022-07-05T14:06:48;3.08;;;0.70;;
20941;SDS011;10630;53.734;10.282;2022-07-05T14:09:23;2.72;;;0.55;;
20941;SDS011;10630;53.734;10.282;2022-07-05T14:11:54;1.98;;;0.45;;
20941;SDS011;10630;53.734;10.282;2022-07-05T14:14:21;1.17;;;0.50;;
20941;SDS011;10630;53.734;10.282;2022-07-05T14:16:49;3.03;;;0.45;;
20941;SDS011;10630;53.734;10.282;2022-07-05T14:19:15;0.70;;;0.40;;
20941;SDS011;10630;53.734;10.282;2022-07-05T14:21:43;1.23;;;0.50;;
20941;SDS011;10630;53.734;10.282;2022-07-05T14:24:14;2.35;;;0.50;;
20941;SDS011;10630;53.734;10.282;2022-07-05T14:26:42;1.15;;;0.38;;
20941;SDS011;10630;53.734;10.282;2022-07-05T14:29:09;2.30;;;0.40;;
20941;SDS011;10630;53.734;10.282;2022-07-05T14:31:41;1.40;;;0.40;;
20941;SDS011;10630;53.734;10.282;2022-07-05T14:34:08;2.78;;;0.50;;
20941;SDS011;10630;53.734;10.282;2022-07-05T14:39:19;2.63;;;0.68;;
20941;SDS011;10630;53.734;10.282;2022-07-05T14:41:53;1.45;;;0.60;;
20941;SDS011;10630;53.734;10.282;2022-07-05T14:44:43;2.83;;;0.73;;
20941;SDS011;10630;53.734;10.282;2022-07-05T14:47:20;1.23;;;0.50;;
20941;SDS011;10630;53.734;10.282;2022-07-05T15:07:37;2.08;;;0.70;;
20941;SDS011;10630;53.734;10.282;2022-07-05T15:10:09;4.03;;;0.70;;
20941;SDS011;10630;53.734;10.282;2022-07-05T15:12:40;3.60;;;0.70;;
20941;SDS011;10630;53.734;10.282;2022-07-05T15:15:15;5.00;;;0.73;;
20941;SDS011;10630;53.734;10.282;2022-07-05T15:17:43;2.63;;;0.70;;
20941;SDS011;10630;53.734;10.282;2022-07-05T17:25:51;4.47;;;0.70;;
20941;SDS011;10630;53.734;10.282;2022-07-05T17:28:18;1.30;;;0.75;;
20941;SDS011;10630;53.734;10.282;2022-07-05T17:30:45;2.03;;;0.70;;
20941;SDS011;10630;53.734;10.282;2022-07-05T17:33:12;4.43;;;0.93;;
20941;SDS011;10630;53.734;10.282;2022-07-05T17:35:41;2.75;;;0.88;;
20941;SDS011;10630;53.734;10.282;2022-07-05T17:38:10;3.55;;;0.73;;
20941;SDS011;10630;53.734;10.282;2022-07-05T17:40:37;3.58;;;0.90;;
20941;SDS011;10630;53.734;10.282;2022-07-05T17:43:11;2.70;;;0.73;;
20941;SDS011;10630;53.734;10.282;2022-07-05T17:45:40;3.22;;;0.75;;
20941;SDS011;10630;53.734;10.282;2022-07-05T17:48:16;2.88;;;0.82;;
20941;SDS011;10630;53.734;10.282;2022-07-05T17:50:51;4.30;;;0.98;;
20941;SDS011;10630;53.734;10.282;2022-07-05T17:56:07;4.30;;;0.80;;
20941;SDS011;10630;53.734;10.282;2022-07-05T17:58:38;1.27;;;0.80;;
20941;SDS011;10630;53.734;10.282;2022-07-05T18:04:28;2.83;;;0.80;;
20941;SDS011;10630;53.734;10.282;2022-07-05T18:07:15;2.13;;;0.73;;
20941;SDS011;10630;53.734;10.282;2022-07-05T18:10:02;2.80;;;0.80;;
20941;SDS011;10630;53.734;10.282;2022-07-05T18:12:52;3.10;;;0.93;;
20941;SDS011;10630;53.734;10.282;2022-07-05T18:15:20;2.85;;;0.85;;
20941;SDS011;10630;53.734;10.282;2022-07-05T18:18:02;2.80;;;0.98;;
20941;SDS011;10630;53.734;10.282;2022-07-05T18:20:39;2.17;;;1.00;;
20941;SDS011;10630;53.734;10.282;2022-07-05T18:23:25;5.18;;;0.88;;
20941;SDS011;10630;53.734;10.282;2022-07-05T18:25:54;2.28;;;0.93;;
20941;SDS011;10630;53.734;10.282;2022-07-05T18:28:21;2.03;;;0.90;;
20941;SDS011;10630;53.734;10.282;2022-07-05T18:30:54;3.85;;;1.00;;
20941;SDS011;10630;53.734;10.282;2022-07-05T18:33:31;2.95;;;0.90;;
20941;SDS011;10630;53.734;10.282;2022-07-05T18:35:59;0.98;;;0.70;;
20941;SDS011;10630;53.734;10.282;2022-07-05T18:38:27;3.05;;;0.90;;
20941;SDS011;10630;53.734;10.282;2022-07-05T18:40:58;4.78;;;0.95;;
20941;SDS011;10630;53.734;10.282;2022-07-05T18:52:17;3.17;;;0.80;;
20941;SDS011;10630;53.734;10.282;2022-07-05T18:58:32;2.43;;;0.63;;
20941;SDS011;10630;53.734;10.282;2022-07-05T19:10:50;2.53;;;0.98;;
20941;SDS011;10630;53.734;10.282;2022-07-05T19:59:55;5.95;;;1.08;;
20941;SDS011;10630;53.734;10.282;2022-07-05T20:02:23;2.00;;;1.00;;
20941;SDS011;10630;53.734;10.282;2022-07-05T20:04:52;4.85;;;0.95;;
20941;SDS011;10630;53.734;10.282;2022-07-05T20:07:21;4.57;;;1.10;;
20941;SDS011;10630;53.734;10.282;2022-07-05T20:09:50;4.78;;;1.98;;
20941;SDS011;10630;53.734;10.282;2022-07-05T20:14:51;6.65;;;1.65;;
20941;SDS011;10630;53.734;10.282;2022-07-05T20:17:18;6.72;;;1.08;;
20941;SDS011;10630;53.734;10.282;2022-07-05T20:19:47;3.53;;;1.15;;
20941;SDS011;10630;53.734;10.282;2022-07-05T20:22:19;2.78;;;0.90;;
20941;SDS011;10630;53.734;10.282;2022-07-05T20:24:50;4.87;;;1.33;;
20941;SDS011;10630;53.734;10.282;2022-07-05T20:27:21;5.95;;;2.90;;
20941;SDS011;10630;53.734;10.282;2022-07-05T20:36:57;5.13;;;1.00;;
20941;SDS011;10630;53.734;10.282;2022-07-05T20:39:28;3.72;;;1.15;;
20941;SDS011;10630;53.734;10.282;2022-07-05T20:44:46;3.97;;;1.50;;
20941;SDS011;10630;53.734;10.282;2022-07-05T20:47:12;2.38;;;1.30;;
20941;SDS011;10630;53.734;10.282;2022-07-05T20:49:41;5.55;;;1.10;;
20941;SDS011;10630;53.734;10.282;2022-07-05T20:52:08;2.55;;;0.90;;
20941;SDS011;10630;53.734;10.282;2022-07-05T20:57:32;4.13;;;1.33;;
20941;SDS011;10630;53.734;10.282;2022-07-05T21:00:00;4.20;;;1.73;;
20941;SDS011;10630;53.734;10.282;2022-07-05T21:02:33;14.88;;;5.82;;
20941;SDS011;10630;53.734;10.282;2022-07-05T21:07:57;7.30;;;1.95;;
20941;SDS011;10630;53.734;10.282;2022-07-05T21:10:33;5.28;;;1.55;;
20941;SDS011;10630;53.734;10.282;2022-07-05T21:13:08;6.07;;;1.33;;
20941;SDS011;10630;53.734;10.282;2022-07-05T21:22:10;5.22;;;1.05;;
20941;SDS011;10630;53.734;10.282;2022-07-05T21:24:48;3.50;;;0.98;;
20941;SDS011;10630;53.734;10.282;2022-07-05T21:27:18;6.00;;;2.42;;
20941;SDS011;10630;53.734;10.282;2022-07-05T21:29:45;6.03;;;1.77;;
20941;SDS011;10630;53.734;10.282;2022-07-05T21:32:19;3.90;;;1.17;;
20941;SDS011;10630;53.734;10.282;2022-07-05T21:35:01;3.78;;;1.17;;
20941;SDS011;10630;53.734;10.282;2022-07-05T21:37:28;4.30;;;1.23;;
20941;SDS011;10630;53.734;10.282;2022-07-05T21:39:55;4.45;;;1.13;;
20941;SDS011;10630;53.734;10.282;2022-07-05T21:42:23;4.32;;;0.88;;
20941;SDS011;10630;53.734;10.282;2022-07-05T21:48:00;4.60;;;1.05;;
20941;SDS011;10630;53.734;10.282;2022-07-05T21:53:33;6.50;;;1.30;;
20941;SDS011;10630;53.734;10.282;2022-07-05T21:56:00;6.88;;;1.20;;
20941;SDS011;10630;53.734;10.282;2022-07-05T21:58:26;3.63;;;1.20;;
20941;SDS011;10630;53.734;10.282;2022-07-05T22:01:07;3.03;;;1.13;;
20941;SDS011;10630;53.734;10.282;2022-07-05T22:03:52;4.82;;;1.05;;
20941;SDS011;10630;53.734;10.282;2022-07-05T22:06:39;5.20;;;0.95;;
20941;SDS011;10630;53.734;10.282;2022-07-05T22:09:06;4.25;;;1.10;;
20941;SDS011;10630;53.734;10.282;2022-07-05T22:14:20;2.85;;;1.10;;
20941;SDS011;10630;53.734;10.282;2022-07-05T22:16:47;3.28;;;1.20;;
20941;SDS011;10630;53.734;10.282;2022-07-05T22:19:31;7.40;;;1.30;;
20941;SDS011;10630;53.734;10.282;2022-07-05T22:21:58;4.13;;;1.20;;
20941;SDS011;10630;53.734;10.282;2022-07-05T22:24:25;4.78;;;1.50;;
20941;SDS011;10630;53.734;10.282;2022-07-05T22:26:52;3.75;;;1.08;;
20941;SDS011;10630;53.734;10.282;2022-07-05T22:29:19;4.78;;;1.15;;
20941;SDS011;10630;53.734;10.282;2022-07-05T22:31:48;3.20;;;1.00;;
20941;SDS011;10630;53.734;10.282;2022-07-05T22:37:40;8.75;;;1.42;;
20941;SDS011;10630;53.734;10.282;2022-07-05T22:40:07;2.10;;;1.10;;
20941;SDS011;10630;53.734;10.282;2022-07-05T22:42:36;4.15;;;1.38;;
20941;SDS011;10630;53.734;10.282;2022-07-05T22:47:53;4.15;;;1.15;;
20941;SDS011;10630;53.734;10.282;2022-07-05T22:50:22;5.53;;;1.60;;
20941;SDS011;10630;53.734;10.282;2022-07-05T22:52:51;4.28;;;1.00;;
20941;SDS011;10630;53.734;10.282;2022-07-05T22:55:17;5.15;;;1.27;;
20941;SDS011;10630;53.734;10.282;2022-07-05T22:57:49;4.80;;;1.27;;
20941;SDS011;10630;53.734;10.282;2022-07-05T23:00:15;3.42;;;1.30;;
20941;SDS011;10630;53.734;10.282;2022-07-05T23:02:49;3.00;;;1.33;;
20941;SDS011;10630;53.734;10.282;2022-07-05T23:05:16;4.72;;;1.08;;
20941;SDS011;10630;53.734;10.282;2022-07-05T23:11:45;4.47;;;1.10;;
20941;SDS011;10630;53.734;10.282;2022-07-05T23:14:13;4.22;;;1.15;;
20941;SDS011;10630;53.734;10.282;2022-07-05T23:16:40;4.50;;;0.98;;
20941;SDS011;10630;53.734;10.282;2022-07-05T23:22:34;4.28;;;1.02;;
20941;SDS011;10630;53.734;10.282;2022-07-05T23:25:01;5.70;;;1.48;;
20941;SDS011;10630;53.734;10.282;2022-07-05T23:27:28;2.70;;;1.10;;
20941;SDS011;10630;53.734;10.282;2022-07-05T23:30:00;4.43;;;1.13;;
20941;SDS011;10630;53.734;10.282;2022-07-05T23:32:29;4.50;;;1.20;;
20941;SDS011;10630;53.734;10.282;2022-07-05T23:34:55;7.03;;;1.63;;
20941;SDS011;10630;53.734;10.282;2022-07-05T23:37:22;4.60;;;1.30;;
20941;SDS011;10630;53.734;10.282;2022-07-05T23:42:46;4.10;;;1.50;;
20941;SDS011;10630;53.734;10.282;2022-07-05T23:45:27;2.97;;;0.90;;
